sensor_id;sensor_type;location;lat;lon;timestamp;P1;durP1;ratioP1;P2;durP2;ratioP2
51921;SDS011;37948;53.260;6.394;2022-08-04T00:01:40;8.40;;;2.17;;
51921;SDS011;37948;53.260;6.394;2022-08-04T00:06:48;6.80;;;2.42;;
51921;SDS011;37948;53.260;6.394;2022-08-04T00:12:14;9.05;;;2.03;;
51921;SDS011;37948;53.260;6.394;2022-08-04T00:14:48;7.13;;;1.98;;
51921;SDS011;37948;53.260;6.394;2022-08-04T00:17:16;5.32;;;1.85;;
51921;SDS011;37948;53.260;6.394;2022-08-04T00:19:46;4.03;;;1.77;;
51921;SDS011;37948;53.260;6.394;2022-08-04T00:22:13;5.90;;;1.65;;
51921;SDS011;37948;53.260;6.394;2022-08-04T00:24:44;12.50;;;2.27;;
51921;SDS011;37948;53.260;6.394;2022-08-04T00:27:10;8.30;;;1.77;;
51921;SDS011;37948;53.260;6.394;2022-08-04T00:29:37;11.07;;;2.75;;
51921;SDS011;37948;53.260;6.394;2022-08-04T00:32:03;9.88;;;1.98;;
51921;SDS011;37948;53.260;6.394;2022-08-04T00:34:31;5.85;;;1.77;;
51921;SDS011;37948;53.260;6.394;2022-08-04T00:36:58;8.27;;;2.03;;
51921;SDS011;37948;53.260;6.394;2022-08-04T00:39:24;7.22;;;1.90;;
51921;SDS011;37948;53.260;6.394;2022-08-04T00:49:59;8.27;;;2.63;;
51921;SDS011;37948;53.260;6.394;2022-08-04T01:00:45;9.18;;;3.00;;
51921;SDS011;37948;53.260;6.394;2022-08-04T01:09:09;4.67;;;2.23;;
51921;SDS011;37948;53.260;6.394;2022-08-04T01:14:40;17.75;;;3.22;;
51921;SDS011;37948;53.260;6.394;2022-08-04T01:17:36;8.40;;;2.95;;
51921;SDS011;37948;53.260;6.394;2022-08-04T01:20:24;8.38;;;2.78;;
51921;SDS011;37948;53.260;6.394;2022-08-04T01:26:01;10.80;;;2.53;;
51921;SDS011;37948;53.260;6.394;2022-08-04T01:29:05;7.00;;;2.85;;
51921;SDS011;37948;53.260;6.394;2022-08-04T01:32:10;6.40;;;2.50;;
51921;SDS011;37948;53.260;6.394;2022-08-04T01:34:41;12.95;;;3.60;;
51921;SDS011;37948;53.260;6.394;2022-08-04T01:37:21;6.00;;;2.78;;
51921;SDS011;37948;53.260;6.394;2022-08-04T01:40:05;7.45;;;2.75;;
51921;SDS011;37948;53.260;6.394;2022-08-04T01:42:32;5.30;;;2.90;;
51921;SDS011;37948;53.260;6.394;2022-08-04T01:45:06;7.57;;;3.13;;
51921;SDS011;37948;53.260;6.394;2022-08-04T01:47:34;16.38;;;3.30;;
51921;SDS011;37948;53.260;6.394;2022-08-04T01:50:03;12.00;;;2.90;;
51921;SDS011;37948;53.260;6.394;2022-08-04T01:52:34;13.00;;;3.35;;
51921;SDS011;37948;53.260;6.394;2022-08-04T01:55:02;8.60;;;3.35;;
51921;SDS011;37948;53.260;6.394;2022-08-04T01:57:29;9.02;;;2.97;;
51921;SDS011;37948;53.260;6.394;2022-08-04T01:59:59;12.50;;;4.03;;
51921;SDS011;37948;53.260;6.394;2022-08-04T02:02:25;8.32;;;3.55;;
51921;SDS011;37948;53.260;6.394;2022-08-04T02:04:50;7.18;;;2.80;;
51921;SDS011;37948;53.260;6.394;2022-08-04T02:10:22;7.63;;;3.17;;
51921;SDS011;37948;53.260;6.394;2022-08-04T02:21:11;8.45;;;3.70;;
51921;SDS011;37948;53.260;6.394;2022-08-04T02:23:41;19.13;;;4.22;;
51921;SDS011;37948;53.260;6.394;2022-08-04T02:26:17;11.20;;;3.67;;
51921;SDS011;37948;53.260;6.394;2022-08-04T02:28:46;15.80;;;3.97;;
51921;SDS011;37948;53.260;6.394;2022-08-04T02:31:31;9.55;;;3.58;;
51921;SDS011;37948;53.260;6.394;2022-08-04T02:36:46;10.75;;;4.03;;
51921;SDS011;37948;53.260;6.394;2022-08-04T02:39:13;13.40;;;3.67;;
51921;SDS011;37948;53.260;6.394;2022-08-04T02:41:43;6.78;;;3.63;;
51921;SDS011;37948;53.260;6.394;2022-08-04T02:44:11;19.95;;;3.85;;
51921;SDS011;37948;53.260;6.394;2022-08-04T02:46:38;12.32;;;4.32;;
51921;SDS011;37948;53.260;6.394;2022-08-04T02:49:09;16.55;;;4.32;;
51921;SDS011;37948;53.260;6.394;2022-08-04T02:54:04;12.63;;;3.67;;
51921;SDS011;37948;53.260;6.394;2022-08-04T02:56:31;10.48;;;3.95;;
51921;SDS011;37948;53.260;6.394;2022-08-04T02:59:05;9.18;;;3.88;;
51921;SDS011;37948;53.260;6.394;2022-08-04T03:01:33;8.20;;;4.10;;
51921;SDS011;37948;53.260;6.394;2022-08-04T03:04:12;13.98;;;4.30;;
51921;SDS011;37948;53.260;6.394;2022-08-04T03:12:54;19.08;;;4.28;;
51921;SDS011;37948;53.260;6.394;2022-08-04T03:18:13;11.65;;;4.00;;
51921;SDS011;37948;53.260;6.394;2022-08-04T03:40:14;10.25;;;4.57;;
51921;SDS011;37948;53.260;6.394;2022-08-04T03:52:05;14.10;;;4.13;;
51921;SDS011;37948;53.260;6.394;2022-08-04T04:29:19;9.07;;;3.88;;
51921;SDS011;37948;53.260;6.394;2022-08-04T04:35:17;10.95;;;4.03;;
51921;SDS011;37948;53.260;6.394;2022-08-04T04:40:42;9.80;;;2.90;;
51921;SDS011;37948;53.260;6.394;2022-08-04T04:46:40;12.73;;;3.65;;
51921;SDS011;37948;53.260;6.394;2022-08-04T04:49:16;12.43;;;3.45;;
51921;SDS011;37948;53.260;6.394;2022-08-04T04:52:08;7.68;;;4.15;;
51921;SDS011;37948;53.260;6.394;2022-08-04T04:57:37;13.25;;;4.00;;
51921;SDS011;37948;53.260;6.394;2022-08-04T05:00:06;16.85;;;3.55;;
51921;SDS011;37948;53.260;6.394;2022-08-04T05:02:49;7.38;;;3.92;;
51921;SDS011;37948;53.260;6.394;2022-08-04T05:14:00;12.05;;;3.60;;
51921;SDS011;37948;53.260;6.394;2022-08-04T05:16:36;13.10;;;4.07;;
51921;SDS011;37948;53.260;6.394;2022-08-04T05:21:59;14.25;;;4.60;;
51921;SDS011;37948;53.260;6.394;2022-08-04T05:24:37;16.70;;;5.28;;
51921;SDS011;37948;53.260;6.394;2022-08-04T05:27:15;13.15;;;5.45;;
51921;SDS011;37948;53.260;6.394;2022-08-04T05:29:50;20.10;;;4.78;;
51921;SDS011;37948;53.260;6.394;2022-08-04T05:32:19;19.00;;;5.15;;
51921;SDS011;37948;53.260;6.394;2022-08-04T05:35:01;16.42;;;5.35;;
51921;SDS011;37948;53.260;6.394;2022-08-04T05:37:29;18.25;;;5.38;;
51921;SDS011;37948;53.260;6.394;2022-08-04T05:39:59;11.05;;;3.85;;
51921;SDS011;37948;53.260;6.394;2022-08-04T05:42:30;8.48;;;4.75;;
51921;SDS011;37948;53.260;6.394;2022-08-04T05:44:59;13.30;;;4.40;;
51921;SDS011;37948;53.260;6.394;2022-08-04T05:47:27;12.73;;;4.88;;
51921;SDS011;37948;53.260;6.394;2022-08-04T05:49:55;16.10;;;4.75;;
51921;SDS011;37948;53.260;6.394;2022-08-04T05:52:22;16.10;;;5.22;;
51921;SDS011;37948;53.260;6.394;2022-08-04T05:54:49;12.07;;;4.82;;
51921;SDS011;37948;53.260;6.394;2022-08-04T05:57:16;10.48;;;4.53;;
51921;SDS011;37948;53.260;6.394;2022-08-04T05:59:43;11.00;;;4.78;;
51921;SDS011;37948;53.260;6.394;2022-08-04T06:02:13;11.52;;;4.63;;
51921;SDS011;37948;53.260;6.394;2022-08-04T06:04:42;13.20;;;4.57;;
51921;SDS011;37948;53.260;6.394;2022-08-04T06:07:11;15.07;;;4.88;;
51921;SDS011;37948;53.260;6.394;2022-08-04T06:09:38;14.80;;;4.47;;
51921;SDS011;37948;53.260;6.394;2022-08-04T06:12:14;9.93;;;3.83;;
51921;SDS011;37948;53.260;6.394;2022-08-04T06:14:45;11.60;;;4.50;;
51921;SDS011;37948;53.260;6.394;2022-08-04T06:17:14;8.75;;;3.90;;
51921;SDS011;37948;53.260;6.394;2022-08-04T06:19:46;14.07;;;4.63;;
51921;SDS011;37948;53.260;6.394;2022-08-04T06:22:14;10.35;;;3.88;;
51921;SDS011;37948;53.260;6.394;2022-08-04T06:24:41;8.43;;;3.78;;
51921;SDS011;37948;53.260;6.394;2022-08-04T06:27:12;15.63;;;4.50;;
51921;SDS011;37948;53.260;6.394;2022-08-04T06:29:39;15.02;;;4.47;;
51921;SDS011;37948;53.260;6.394;2022-08-04T06:32:06;11.65;;;3.88;;
51921;SDS011;37948;53.260;6.394;2022-08-04T06:37:21;12.98;;;3.75;;
51921;SDS011;37948;53.260;6.394;2022-08-04T06:39:49;11.52;;;3.67;;
51921;SDS011;37948;53.260;6.394;2022-08-04T06:42:16;11.00;;;3.58;;
51921;SDS011;37948;53.260;6.394;2022-08-04T06:44:48;7.25;;;3.22;;
51921;SDS011;37948;53.260;6.394;2022-08-04T06:47:19;8.50;;;3.47;;
51921;SDS011;37948;53.260;6.394;2022-08-04T06:49:47;12.55;;;3.65;;
51921;SDS011;37948;53.260;6.394;2022-08-04T06:52:14;8.95;;;2.75;;
51921;SDS011;37948;53.260;6.394;2022-08-04T06:54:46;20.15;;;3.85;;
51921;SDS011;37948;53.260;6.394;2022-08-04T06:57:14;10.23;;;3.53;;
51921;SDS011;37948;53.260;6.394;2022-08-04T06:59:42;9.38;;;2.58;;
51921;SDS011;37948;53.260;6.394;2022-08-04T07:02:17;8.18;;;3.72;;
51921;SDS011;37948;53.260;6.394;2022-08-04T07:04:47;33.88;;;4.40;;
51921;SDS011;37948;53.260;6.394;2022-08-04T07:07:13;14.80;;;3.90;;
51921;SDS011;37948;53.260;6.394;2022-08-04T07:09:39;12.45;;;3.92;;
51921;SDS011;37948;53.260;6.394;2022-08-04T07:12:06;19.05;;;4.00;;
51921;SDS011;37948;53.260;6.394;2022-08-04T07:14:32;14.68;;;3.72;;
51921;SDS011;37948;53.260;6.394;2022-08-04T07:17:04;8.15;;;3.97;;
51921;SDS011;37948;53.260;6.394;2022-08-04T07:19:32;12.93;;;4.18;;
51921;SDS011;37948;53.260;6.394;2022-08-04T07:21:59;7.63;;;3.90;;
51921;SDS011;37948;53.260;6.394;2022-08-04T07:24:29;10.48;;;4.85;;
51921;SDS011;37948;53.260;6.394;2022-08-04T07:26:59;13.63;;;6.05;;
51921;SDS011;37948;53.260;6.394;2022-08-04T07:29:25;17.40;;;5.20;;
51921;SDS011;37948;53.260;6.394;2022-08-04T07:31:51;18.42;;;5.40;;
51921;SDS011;37948;53.260;6.394;2022-08-04T07:34:18;9.40;;;6.60;;
51921;SDS011;37948;53.260;6.394;2022-08-04T07:36:45;13.60;;;5.95;;
51921;SDS011;37948;53.260;6.394;2022-08-04T07:39:11;13.05;;;6.45;;
51921;SDS011;37948;53.260;6.394;2022-08-04T07:41:38;12.20;;;6.10;;
51921;SDS011;37948;53.260;6.394;2022-08-04T07:44:07;12.75;;;5.63;;
51921;SDS011;37948;53.260;6.394;2022-08-04T07:46:34;13.55;;;6.30;;
51921;SDS011;37948;53.260;6.394;2022-08-04T07:49:01;13.75;;;6.00;;
51921;SDS011;37948;53.260;6.394;2022-08-04T07:51:27;32.38;;;8.40;;
51921;SDS011;37948;53.260;6.394;2022-08-04T07:53:54;12.82;;;5.72;;
51921;SDS011;37948;53.260;6.394;2022-08-04T07:56:21;8.45;;;5.35;;
51921;SDS011;37948;53.260;6.394;2022-08-04T07:58:46;18.10;;;6.32;;
51921;SDS011;37948;53.260;6.394;2022-08-04T08:01:12;10.80;;;5.32;;
51921;SDS011;37948;53.260;6.394;2022-08-04T08:03:38;10.02;;;6.25;;
51921;SDS011;37948;53.260;6.394;2022-08-04T08:06:05;11.27;;;5.70;;
51921;SDS011;37948;53.260;6.394;2022-08-04T08:08:31;15.98;;;5.50;;
51921;SDS011;37948;53.260;6.394;2022-08-04T08:10:57;10.02;;;4.90;;
51921;SDS011;37948;53.260;6.394;2022-08-04T08:13:23;15.52;;;5.60;;
51921;SDS011;37948;53.260;6.394;2022-08-04T08:15:49;9.63;;;5.70;;
51921;SDS011;37948;53.260;6.394;2022-08-04T08:18:16;12.93;;;5.57;;
51921;SDS011;37948;53.260;6.394;2022-08-04T08:20:45;13.30;;;4.72;;
51921;SDS011;37948;53.260;6.394;2022-08-04T08:23:10;11.80;;;4.80;;
51921;SDS011;37948;53.260;6.394;2022-08-04T08:25:36;9.82;;;4.95;;
51921;SDS011;37948;53.260;6.394;2022-08-04T08:28:03;14.73;;;5.28;;
51921;SDS011;37948;53.260;6.394;2022-08-04T08:30:29;22.17;;;6.72;;
51921;SDS011;37948;53.260;6.394;2022-08-04T08:32:56;10.38;;;5.03;;
51921;SDS011;37948;53.260;6.394;2022-08-04T08:35:22;8.77;;;4.82;;
51921;SDS011;37948;53.260;6.394;2022-08-04T08:37:51;12.00;;;5.63;;
51921;SDS011;37948;53.260;6.394;2022-08-04T08:40:38;11.95;;;5.80;;
51921;SDS011;37948;53.260;6.394;2022-08-04T08:49:07;12.23;;;3.35;;
51921;SDS011;37948;53.260;6.394;2022-08-04T08:51:52;11.45;;;3.25;;
51921;SDS011;37948;53.260;6.394;2022-08-04T08:57:38;11.95;;;3.28;;
51921;SDS011;37948;53.260;6.394;2022-08-04T09:00:32;10.82;;;2.88;;
51921;SDS011;37948;53.260;6.394;2022-08-04T09:03:19;6.55;;;2.60;;
51921;SDS011;37948;53.260;6.394;2022-08-04T09:11:26;13.25;;;2.67;;
51921;SDS011;37948;53.260;6.394;2022-08-04T09:14:00;8.90;;;2.45;;
51921;SDS011;37948;53.260;6.394;2022-08-04T09:16:37;9.13;;;3.28;;
51921;SDS011;37948;53.260;6.394;2022-08-04T09:38:01;8.55;;;2.00;;
51921;SDS011;37948;53.260;6.394;2022-08-04T09:43:19;5.20;;;1.80;;
51921;SDS011;37948;53.260;6.394;2022-08-04T09:46:04;3.47;;;1.70;;
51921;SDS011;37948;53.260;6.394;2022-08-04T09:48:51;13.02;;;1.90;;
51921;SDS011;37948;53.260;6.394;2022-08-04T09:51:41;14.85;;;2.38;;
51921;SDS011;37948;53.260;6.394;2022-08-04T10:00:05;13.85;;;2.40;;
51921;SDS011;37948;53.260;6.394;2022-08-04T10:02:41;9.30;;;1.73;;
51921;SDS011;37948;53.260;6.394;2022-08-04T10:05:24;9.27;;;2.08;;
51921;SDS011;37948;53.260;6.394;2022-08-04T10:07:56;7.13;;;1.60;;
51921;SDS011;37948;53.260;6.394;2022-08-04T10:10:41;10.68;;;1.92;;
51921;SDS011;37948;53.260;6.394;2022-08-04T10:17:15;14.27;;;1.98;;
51921;SDS011;37948;53.260;6.394;2022-08-04T10:20:06;11.23;;;1.90;;
51921;SDS011;37948;53.260;6.394;2022-08-04T10:25:23;11.48;;;2.15;;
51921;SDS011;37948;53.260;6.394;2022-08-04T10:28:02;9.38;;;1.65;;
51921;SDS011;37948;53.260;6.394;2022-08-04T10:30:30;3.67;;;1.60;;
51921;SDS011;37948;53.260;6.394;2022-08-04T10:35:43;10.40;;;2.10;;
51921;SDS011;37948;53.260;6.394;2022-08-04T10:38:24;5.40;;;1.67;;
51921;SDS011;37948;53.260;6.394;2022-08-04T10:41:29;2.92;;;1.30;;
51921;SDS011;37948;53.260;6.394;2022-08-04T10:44:12;11.77;;;1.65;;
51921;SDS011;37948;53.260;6.394;2022-08-04T10:46:43;10.68;;;1.88;;
51921;SDS011;37948;53.260;6.394;2022-08-04T10:49:15;4.82;;;1.13;;
51921;SDS011;37948;53.260;6.394;2022-08-04T10:54:14;1.92;;;1.20;;
51921;SDS011;37948;53.260;6.394;2022-08-04T10:56:48;5.97;;;1.00;;
51921;SDS011;37948;53.260;6.394;2022-08-04T10:59:22;4.05;;;1.25;;
51921;SDS011;37948;53.260;6.394;2022-08-04T11:02:21;6.80;;;1.70;;
51921;SDS011;37948;53.260;6.394;2022-08-04T11:07:38;2.75;;;1.27;;
51921;SDS011;37948;53.260;6.394;2022-08-04T11:10:07;2.50;;;0.90;;
51921;SDS011;37948;53.260;6.394;2022-08-04T11:12:33;5.88;;;1.10;;
51921;SDS011;37948;53.260;6.394;2022-08-04T11:17:31;3.30;;;0.93;;
51921;SDS011;37948;53.260;6.394;2022-08-04T11:20:02;3.28;;;0.93;;
51921;SDS011;37948;53.260;6.394;2022-08-04T11:23:12;2.53;;;1.05;;
51921;SDS011;37948;53.260;6.394;2022-08-04T11:31:11;3.05;;;1.02;;
51921;SDS011;37948;53.260;6.394;2022-08-04T11:39:26;3.13;;;1.17;;
51921;SDS011;37948;53.260;6.394;2022-08-04T11:41:59;4.10;;;0.80;;
51921;SDS011;37948;53.260;6.394;2022-08-04T11:44:31;4.20;;;1.23;;
51921;SDS011;37948;53.260;6.394;2022-08-04T11:49:59;3.67;;;0.60;;
51921;SDS011;37948;53.260;6.394;2022-08-04T11:52:26;2.90;;;0.70;;
51921;SDS011;37948;53.260;6.394;2022-08-04T11:54:53;0.73;;;0.60;;
51921;SDS011;37948;53.260;6.394;2022-08-04T11:57:21;2.45;;;0.60;;
51921;SDS011;37948;53.260;6.394;2022-08-04T11:59:48;4.03;;;0.60;;
51921;SDS011;37948;53.260;6.394;2022-08-04T12:02:36;1.20;;;0.60;;
51921;SDS011;37948;53.260;6.394;2022-08-04T12:05:26;4.93;;;0.70;;
51921;SDS011;37948;53.260;6.394;2022-08-04T12:11:04;1.58;;;0.70;;
51921;SDS011;37948;53.260;6.394;2022-08-04T12:13:38;1.80;;;0.93;;
51921;SDS011;37948;53.260;6.394;2022-08-04T12:16:27;4.95;;;1.13;;
51921;SDS011;37948;53.260;6.394;2022-08-04T12:19:00;2.70;;;0.52;;
51921;SDS011;37948;53.260;6.394;2022-08-04T12:21:38;1.85;;;0.80;;
51921;SDS011;37948;53.260;6.394;2022-08-04T12:24:17;2.08;;;1.10;;
51921;SDS011;37948;53.260;6.394;2022-08-04T12:26:52;1.45;;;0.50;;
51921;SDS011;37948;53.260;6.394;2022-08-04T12:29:25;1.05;;;0.50;;
51921;SDS011;37948;53.260;6.394;2022-08-04T12:31:57;4.35;;;0.60;;
51921;SDS011;37948;53.260;6.394;2022-08-04T12:36:58;1.88;;;0.50;;
51921;SDS011;37948;53.260;6.394;2022-08-04T12:39:28;2.53;;;0.82;;
51921;SDS011;37948;53.260;6.394;2022-08-04T12:42:02;2.10;;;1.00;;
51921;SDS011;37948;53.260;6.394;2022-08-04T12:44:37;3.47;;;0.70;;
51921;SDS011;37948;53.260;6.394;2022-08-04T12:47:08;2.83;;;1.33;;
51921;SDS011;37948;53.260;6.394;2022-08-04T12:49:37;1.25;;;0.70;;
51921;SDS011;37948;53.260;6.394;2022-08-04T12:52:06;2.70;;;0.98;;
51921;SDS011;37948;53.260;6.394;2022-08-04T12:54:33;2.15;;;0.90;;
51921;SDS011;37948;53.260;6.394;2022-08-04T12:57:04;3.10;;;0.88;;
51921;SDS011;37948;53.260;6.394;2022-08-04T12:59:39;2.03;;;0.93;;
51921;SDS011;37948;53.260;6.394;2022-08-04T13:02:14;3.92;;;0.80;;
51921;SDS011;37948;53.260;6.394;2022-08-04T13:04:47;5.63;;;0.80;;
51921;SDS011;37948;53.260;6.394;2022-08-04T13:07:14;7.55;;;1.13;;
51921;SDS011;37948;53.260;6.394;2022-08-04T13:09:44;3.75;;;0.80;;
51921;SDS011;37948;53.260;6.394;2022-08-04T13:12:11;5.88;;;0.90;;
51921;SDS011;37948;53.260;6.394;2022-08-04T13:14:50;1.95;;;1.10;;
51921;SDS011;37948;53.260;6.394;2022-08-04T13:17:21;1.58;;;0.70;;
51921;SDS011;37948;53.260;6.394;2022-08-04T13:19:48;6.40;;;1.27;;
51921;SDS011;37948;53.260;6.394;2022-08-04T13:22:27;5.00;;;1.05;;
51921;SDS011;37948;53.260;6.394;2022-08-04T13:24:56;5.13;;;1.25;;
51921;SDS011;37948;53.260;6.394;2022-08-04T13:27:24;8.55;;;1.23;;
51921;SDS011;37948;53.260;6.394;2022-08-04T13:29:51;4.75;;;1.13;;
51921;SDS011;37948;53.260;6.394;2022-08-04T13:32:21;1.92;;;0.80;;
51921;SDS011;37948;53.260;6.394;2022-08-04T13:34:49;7.78;;;1.15;;
51921;SDS011;37948;53.260;6.394;2022-08-04T13:37:17;7.97;;;1.17;;
51921;SDS011;37948;53.260;6.394;2022-08-04T13:39:58;7.22;;;0.95;;
51921;SDS011;37948;53.260;6.394;2022-08-04T13:42:28;3.40;;;0.70;;
51921;SDS011;37948;53.260;6.394;2022-08-04T13:44:56;3.40;;;1.23;;
51921;SDS011;37948;53.260;6.394;2022-08-04T13:47:25;3.63;;;0.70;;
51921;SDS011;37948;53.260;6.394;2022-08-04T13:50:14;3.42;;;1.20;;
51921;SDS011;37948;53.260;6.394;2022-08-04T13:52:49;9.57;;;1.63;;
51921;SDS011;37948;53.260;6.394;2022-08-04T13:55:17;9.30;;;1.92;;
51921;SDS011;37948;53.260;6.394;2022-08-04T14:00:18;14.85;;;2.90;;
51921;SDS011;37948;53.260;6.394;2022-08-04T14:03:00;13.75;;;3.03;;
51921;SDS011;37948;53.260;6.394;2022-08-04T14:05:29;12.30;;;2.60;;
51921;SDS011;37948;53.260;6.394;2022-08-04T14:08:07;9.80;;;3.10;;
51921;SDS011;37948;53.260;6.394;2022-08-04T14:10:35;9.18;;;3.08;;
51921;SDS011;37948;53.260;6.394;2022-08-04T14:13:04;11.68;;;2.90;;
51921;SDS011;37948;53.260;6.394;2022-08-04T14:18:15;10.77;;;2.70;;
51921;SDS011;37948;53.260;6.394;2022-08-04T14:21:07;8.65;;;2.03;;
51921;SDS011;37948;53.260;6.394;2022-08-04T14:23:46;5.75;;;2.55;;
51921;SDS011;37948;53.260;6.394;2022-08-04T14:26:22;5.30;;;2.10;;
51921;SDS011;37948;53.260;6.394;2022-08-04T14:28:50;8.70;;;2.20;;
51921;SDS011;37948;53.260;6.394;2022-08-04T14:31:21;10.27;;;3.03;;
51921;SDS011;37948;53.260;6.394;2022-08-04T14:33:49;5.03;;;2.20;;
51921;SDS011;37948;53.260;6.394;2022-08-04T14:36:16;6.32;;;1.90;;
51921;SDS011;37948;53.260;6.394;2022-08-04T14:38:47;5.20;;;2.35;;
51921;SDS011;37948;53.260;6.394;2022-08-04T14:41:21;4.47;;;1.85;;
51921;SDS011;37948;53.260;6.394;2022-08-04T14:43:55;6.30;;;1.50;;
51921;SDS011;37948;53.260;6.394;2022-08-04T14:46:23;4.88;;;2.55;;
51921;SDS011;37948;53.260;6.394;2022-08-04T14:49:08;4.30;;;2.30;;
51921;SDS011;37948;53.260;6.394;2022-08-04T14:51:39;6.30;;;1.83;;
51921;SDS011;37948;53.260;6.394;2022-08-04T14:54:09;5.00;;;2.08;;
51921;SDS011;37948;53.260;6.394;2022-08-04T14:56:40;1.70;;;1.60;;
51921;SDS011;37948;53.260;6.394;2022-08-04T14:59:14;6.40;;;1.70;;
51921;SDS011;37948;53.260;6.394;2022-08-04T15:01:40;5.18;;;1.90;;
51921;SDS011;37948;53.260;6.394;2022-08-04T15:04:08;4.75;;;1.33;;
51921;SDS011;37948;53.260;6.394;2022-08-04T15:06:35;9.07;;;2.40;;
51921;SDS011;37948;53.260;6.394;2022-08-04T15:09:02;3.50;;;2.40;;
51921;SDS011;37948;53.260;6.394;2022-08-04T15:11:31;5.82;;;2.78;;
51921;SDS011;37948;53.260;6.394;2022-08-04T15:13:58;7.63;;;2.75;;
51921;SDS011;37948;53.260;6.394;2022-08-04T15:16:24;3.17;;;2.25;;
51921;SDS011;37948;53.260;6.394;2022-08-04T15:18:52;5.47;;;2.10;;
51921;SDS011;37948;53.260;6.394;2022-08-04T15:21:18;5.50;;;1.90;;
51921;SDS011;37948;53.260;6.394;2022-08-04T15:23:46;3.47;;;2.20;;
51921;SDS011;37948;53.260;6.394;2022-08-04T15:26:15;2.85;;;1.65;;
51921;SDS011;37948;53.260;6.394;2022-08-04T15:28:50;2.63;;;1.60;;
51921;SDS011;37948;53.260;6.394;2022-08-04T15:31:19;2.75;;;1.13;;
51921;SDS011;37948;53.260;6.394;2022-08-04T15:33:47;1.83;;;1.10;;
51921;SDS011;37948;53.260;6.394;2022-08-04T15:36:15;2.72;;;1.13;;
51921;SDS011;37948;53.260;6.394;2022-08-04T15:39:01;3.40;;;1.33;;
51921;SDS011;37948;53.260;6.394;2022-08-04T15:47:17;2.42;;;0.85;;
51921;SDS011;37948;53.260;6.394;2022-08-04T15:49:43;4.93;;;1.58;;
51921;SDS011;37948;53.260;6.394;2022-08-04T15:52:11;3.22;;;1.33;;
51921;SDS011;37948;53.260;6.394;2022-08-04T15:54:40;4.03;;;1.00;;
51921;SDS011;37948;53.260;6.394;2022-08-04T15:57:06;2.08;;;0.98;;
51921;SDS011;37948;53.260;6.394;2022-08-04T16:02:35;4.85;;;1.17;;
51921;SDS011;37948;53.260;6.394;2022-08-04T16:12:57;5.20;;;1.20;;
51921;SDS011;37948;53.260;6.394;2022-08-04T16:15:38;5.45;;;1.52;;
51921;SDS011;37948;53.260;6.394;2022-08-04T16:18:05;1.98;;;1.08;;
51921;SDS011;37948;53.260;6.394;2022-08-04T16:20:32;6.63;;;1.20;;
51921;SDS011;37948;53.260;6.394;2022-08-04T16:23:01;20.48;;;1.67;;
51921;SDS011;37948;53.260;6.394;2022-08-04T16:25:40;4.97;;;0.95;;
51921;SDS011;37948;53.260;6.394;2022-08-04T16:28:07;7.25;;;1.10;;
51921;SDS011;37948;53.260;6.394;2022-08-04T16:31:02;4.10;;;0.82;;
51921;SDS011;37948;53.260;6.394;2022-08-04T16:33:33;3.83;;;1.13;;
51921;SDS011;37948;53.260;6.394;2022-08-04T16:35:59;4.22;;;1.33;;
51921;SDS011;37948;53.260;6.394;2022-08-04T16:38:26;7.82;;;1.10;;
51921;SDS011;37948;53.260;6.394;2022-08-04T16:40:55;2.88;;;0.90;;
51921;SDS011;37948;53.260;6.394;2022-08-04T16:43:26;3.10;;;1.10;;
51921;SDS011;37948;53.260;6.394;2022-08-04T16:48:20;6.22;;;1.15;;
51921;SDS011;37948;53.260;6.394;2022-08-04T16:53:18;2.58;;;0.98;;
51921;SDS011;37948;53.260;6.394;2022-08-04T16:55:46;5.68;;;1.70;;
51921;SDS011;37948;53.260;6.394;2022-08-04T16:58:14;3.20;;;1.20;;
51921;SDS011;37948;53.260;6.394;2022-08-04T17:00:41;5.72;;;1.10;;
51921;SDS011;37948;53.260;6.394;2022-08-04T17:03:10;4.60;;;1.27;;
51921;SDS011;37948;53.260;6.394;2022-08-04T17:05:36;3.78;;;1.00;;
51921;SDS011;37948;53.260;6.394;2022-08-04T17:08:06;4.68;;;1.25;;
51921;SDS011;37948;53.260;6.394;2022-08-04T17:10:40;3.33;;;1.02;;
51921;SDS011;37948;53.260;6.394;2022-08-04T17:13:26;4.68;;;1.00;;
51921;SDS011;37948;53.260;6.394;2022-08-04T17:16:02;4.55;;;1.10;;
51921;SDS011;37948;53.260;6.394;2022-08-04T17:18:34;4.00;;;1.30;;
51921;SDS011;37948;53.260;6.394;2022-08-04T17:21:11;5.07;;;1.80;;
51921;SDS011;37948;53.260;6.394;2022-08-04T17:23:45;5.57;;;1.52;;
51921;SDS011;37948;53.260;6.394;2022-08-04T17:26:17;6.45;;;1.17;;
51921;SDS011;37948;53.260;6.394;2022-08-04T17:28:48;5.43;;;1.40;;
51921;SDS011;37948;53.260;6.394;2022-08-04T17:31:15;1.70;;;1.20;;
51921;SDS011;37948;53.260;6.394;2022-08-04T17:33:45;8.13;;;1.63;;
51921;SDS011;37948;53.260;6.394;2022-08-04T17:36:12;7.82;;;2.00;;
51921;SDS011;37948;53.260;6.394;2022-08-04T17:41:12;3.47;;;1.60;;
51921;SDS011;37948;53.260;6.394;2022-08-04T17:46:38;7.97;;;2.15;;
51921;SDS011;37948;53.260;6.394;2022-08-04T17:49:13;3.60;;;1.90;;
51921;SDS011;37948;53.260;6.394;2022-08-04T17:51:51;5.32;;;2.13;;
51921;SDS011;37948;53.260;6.394;2022-08-04T17:56:56;3.78;;;1.25;;
51921;SDS011;37948;53.260;6.394;2022-08-04T17:59:40;4.93;;;2.10;;
51921;SDS011;37948;53.260;6.394;2022-08-04T18:02:07;4.45;;;1.65;;
51921;SDS011;37948;53.260;6.394;2022-08-04T18:07:06;6.93;;;1.77;;
51921;SDS011;37948;53.260;6.394;2022-08-04T18:12:23;6.07;;;1.58;;
51921;SDS011;37948;53.260;6.394;2022-08-04T18:17:42;6.50;;;1.85;;
51921;SDS011;37948;53.260;6.394;2022-08-04T18:20:13;4.20;;;1.30;;
51921;SDS011;37948;53.260;6.394;2022-08-04T18:22:42;4.35;;;1.58;;
51921;SDS011;37948;53.260;6.394;2022-08-04T18:25:09;4.72;;;1.40;;
51921;SDS011;37948;53.260;6.394;2022-08-04T18:27:45;7.05;;;1.70;;
51921;SDS011;37948;53.260;6.394;2022-08-04T18:30:17;6.45;;;1.80;;
51921;SDS011;37948;53.260;6.394;2022-08-04T18:32:43;5.55;;;1.65;;
51921;SDS011;37948;53.260;6.394;2022-08-04T18:35:08;6.05;;;2.28;;
51921;SDS011;37948;53.260;6.394;2022-08-04T18:37:37;7.97;;;1.63;;
51921;SDS011;37948;53.260;6.394;2022-08-04T18:40:06;9.65;;;1.65;;
51921;SDS011;37948;53.260;6.394;2022-08-04T18:42:33;5.88;;;1.55;;
51921;SDS011;37948;53.260;6.394;2022-08-04T18:44:59;3.58;;;1.40;;
51921;SDS011;37948;53.260;6.394;2022-08-04T18:47:25;4.40;;;1.60;;
51921;SDS011;37948;53.260;6.394;2022-08-04T18:49:51;7.63;;;2.20;;
51921;SDS011;37948;53.260;6.394;2022-08-04T18:52:17;6.45;;;2.20;;
51921;SDS011;37948;53.260;6.394;2022-08-04T18:54:43;7.05;;;2.10;;
51921;SDS011;37948;53.260;6.394;2022-08-04T18:57:09;4.40;;;1.30;;
51921;SDS011;37948;53.260;6.394;2022-08-04T18:59:35;4.90;;;1.55;;
51921;SDS011;37948;53.260;6.394;2022-08-04T19:02:00;5.15;;;1.73;;
51921;SDS011;37948;53.260;6.394;2022-08-04T19:04:26;4.60;;;1.70;;
51921;SDS011;37948;53.260;6.394;2022-08-04T19:06:54;5.85;;;1.45;;
51921;SDS011;37948;53.260;6.394;2022-08-04T19:09:22;3.90;;;1.45;;
51921;SDS011;37948;53.260;6.394;2022-08-04T19:11:50;4.18;;;1.60;;
51921;SDS011;37948;53.260;6.394;2022-08-04T19:14:16;4.57;;;1.30;;
51921;SDS011;37948;53.260;6.394;2022-08-04T19:16:42;4.40;;;1.50;;
51921;SDS011;37948;53.260;6.394;2022-08-04T19:19:08;5.13;;;1.35;;
51921;SDS011;37948;53.260;6.394;2022-08-04T19:21:34;8.85;;;1.55;;
51921;SDS011;37948;53.260;6.394;2022-08-04T19:24:00;2.63;;;1.20;;
51921;SDS011;37948;53.260;6.394;2022-08-04T19:26:29;3.67;;;1.27;;
51921;SDS011;37948;53.260;6.394;2022-08-04T19:28:54;5.20;;;1.40;;
51921;SDS011;37948;53.260;6.394;2022-08-04T19:31:20;6.35;;;1.50;;
51921;SDS011;37948;53.260;6.394;2022-08-04T19:33:46;4.68;;;1.70;;
51921;SDS011;37948;53.260;6.394;2022-08-04T19:36:12;5.43;;;1.88;;
51921;SDS011;37948;53.260;6.394;2022-08-04T19:38:40;7.47;;;1.83;;
51921;SDS011;37948;53.260;6.394;2022-08-04T19:41:07;4.95;;;1.88;;